createdAt,value
2022-12-26T00:01:21.603Z,80.40
2022-12-26T00:06:16.124Z,73.90
2022-12-26T00:11:10.244Z,85.65
2022-12-26T00:16:13.187Z,77.95
2022-12-26T00:21:11.823Z,72.93
2022-12-26T00:26:10.949Z,79.88
2022-12-26T00:31:33.372Z,72.22
2022-12-26T00:36:33.084Z,78.95
2022-12-26T00:41:26.602Z,79.75
2022-12-26T00:46:20.638Z,77.68
2022-12-26T00:51:15.365Z,69.80
2022-12-26T00:56:09.462Z,78.32
2022-12-26T01:06:08.309Z,72.95
2022-12-26T01:11:40.970Z,79.28
2022-12-26T01:16:33.598Z,79.57
2022-12-26T01:21:27.936Z,73.15
2022-12-26T01:26:22.587Z,73.45
2022-12-26T01:31:16.573Z,66.43
2022-12-26T01:36:11.238Z,71.57
2022-12-26T01:41:20.656Z,66.57
2022-12-26T01:46:15.663Z,58.83
2022-12-26T01:51:09.354Z,65.03
2022-12-26T01:56:05.811Z,65.15
2022-12-26T02:00:59.579Z,65.68
2022-12-26T02:05:53.458Z,63.63
2022-12-26T02:11:10.260Z,66.50
2022-12-26T02:16:04.581Z,63.08
2022-12-26T02:21:02.850Z,68.45
2022-12-26T02:26:18.827Z,68.82
2022-12-26T02:31:21.508Z,70.03
2022-12-26T02:36:44.177Z,77.07
2022-12-26T02:42:01.968Z,71.65
2022-12-26T02:47:12.454Z,77.25
2022-12-26T02:52:46.388Z,83.35
2022-12-26T02:58:07.431Z,76.03
2022-12-26T03:03:22.202Z,67.35
2022-12-26T03:08:55.389Z,71.38
2022-12-26T03:14:13.333Z,69.15
2022-12-26T03:19:08.605Z,63.10
2022-12-26T03:24:02.529Z,61.72
2022-12-26T03:29:18.967Z,55.88
2022-12-26T03:34:19.797Z,51.17
2022-12-26T03:39:47.939Z,44.97
2022-12-26T03:45:53.925Z,44.53
2022-12-26T03:51:15.456Z,33.92
2022-12-26T03:56:49.398Z,33.42
2022-12-26T04:02:22.522Z,32.78
2022-12-26T04:07:57.902Z,31.83
2022-12-26T04:13:32.670Z,27.38
2022-12-26T04:18:51.034Z,27.13
2022-12-26T04:24:06.033Z,22.48
2022-12-26T04:29:17.865Z,21.13
2022-12-26T04:34:38.283Z,20.55
2022-12-26T04:39:52.393Z,24.08
2022-12-26T04:44:47.652Z,23.27
2022-12-26T04:50:03.643Z,23.17
2022-12-26T04:55:02.272Z,22.63
2022-12-26T04:59:58.698Z,24.90
2022-12-26T05:05:10.862Z,22.85
2022-12-26T05:10:06.449Z,25.83
2022-12-26T05:15:00.254Z,24.33
2022-12-26T05:20:12.718Z,24.10
2022-12-26T05:25:24.338Z,24.08
2022-12-26T05:30:23.220Z,27.50
2022-12-26T05:35:16.601Z,25.00
2022-12-26T05:40:16.998Z,28.08
2022-12-26T05:45:11.488Z,27.20
2022-12-26T05:50:05.579Z,27.40
2022-12-26T05:54:59.665Z,29.65
2022-12-26T05:59:52.860Z,28.08
2022-12-26T06:09:39.549Z,22.13
2022-12-26T06:14:33.004Z,24.53
2022-12-26T06:19:27.138Z,25.60
2022-12-26T06:24:21.621Z,29.45
2022-12-26T06:29:14.560Z,28.23
2022-12-26T06:34:08.148Z,30.88
2022-12-26T06:39:06.181Z,33.15
2022-12-26T06:44:00.495Z,39.00
2022-12-26T06:48:54.443Z,42.28
2022-12-26T06:53:48.286Z,39.55
2022-12-26T06:58:42.313Z,38.63
2022-12-26T07:03:36.444Z,45.72
2022-12-26T07:08:30.318Z,52.13
2022-12-26T07:13:23.816Z,46.75
2022-12-26T07:23:10.971Z,38.30
2022-12-26T07:28:05.721Z,40.33
2022-12-26T07:32:59.215Z,38.08
2022-12-26T07:42:46.682Z,38.92
2022-12-26T07:47:41.162Z,36.47
2022-12-26T07:52:34.851Z,33.00
2022-12-26T08:02:42.716Z,36.28
2022-12-26T08:07:37.448Z,32.38
2022-12-26T08:12:33.519Z,35.85
2022-12-26T08:17:27.474Z,28.60
2022-12-26T08:22:21.417Z,32.63
2022-12-26T08:27:14.894Z,31.35
2022-12-26T08:32:08.760Z,31.70
2022-12-26T08:37:02.256Z,28.42
2022-12-26T08:46:50.255Z,27.38
2022-12-26T08:51:44.399Z,25.25
2022-12-26T08:56:37.907Z,29.00
2022-12-26T09:01:42.375Z,29.33
2022-12-26T09:06:37.701Z,28.08
2022-12-26T09:11:32.174Z,29.55
2022-12-26T09:16:37.197Z,30.40
2022-12-26T09:21:32.360Z,31.38
2022-12-26T09:26:26.082Z,31.75
2022-12-26T09:31:28.703Z,32.38
2022-12-26T09:36:26.552Z,31.08
2022-12-26T09:41:19.498Z,39.58
2022-12-26T09:46:19.697Z,38.22
2022-12-26T09:51:33.390Z,38.47
2022-12-26T10:07:06.998Z,50.60
2022-12-26T10:12:15.469Z,51.28
2022-12-26T10:17:39.480Z,56.08
2022-12-26T10:23:05.606Z,53.47
2022-12-26T10:27:59.427Z,62.65
2022-12-26T10:32:57.758Z,56.88
2022-12-26T10:37:52.664Z,55.65
2022-12-26T10:42:57.807Z,54.38
2022-12-26T10:47:52.445Z,56.10
2022-12-26T10:52:52.126Z,56.55
2022-12-26T10:57:48.170Z,56.65
2022-12-26T11:02:42.523Z,56.55
2022-12-26T11:07:41.122Z,59.58
2022-12-26T11:12:44.075Z,54.65
2022-12-26T11:17:50.989Z,57.97
2022-12-26T11:22:44.944Z,49.45
2022-12-26T11:27:44.552Z,64.32
2022-12-26T11:32:37.805Z,58.25
2022-12-26T11:42:25.386Z,57.60
2022-12-26T11:47:21.773Z,60.15
2022-12-26T11:52:35.470Z,60.03
2022-12-26T11:57:32.919Z,57.60
2022-12-26T12:02:33.080Z,58.97
2022-12-26T12:07:36.217Z,58.88
2022-12-26T12:12:57.048Z,53.60
2022-12-26T12:18:06.221Z,54.13
2022-12-26T12:23:02.435Z,57.35
2022-12-26T12:28:14.973Z,57.05
2022-12-26T12:33:42.280Z,60.35
2022-12-26T12:39:03.474Z,57.00
2022-12-26T12:44:00.020Z,61.90
2022-12-26T12:49:51.574Z,60.63
2022-12-26T12:55:40.238Z,58.78
2022-12-26T13:00:41.633Z,62.85
2022-12-26T13:05:56.406Z,62.20
2022-12-26T13:10:56.576Z,60.50
2022-12-26T13:15:53.612Z,60.67
2022-12-26T13:20:52.437Z,56.60
2022-12-26T13:25:48.967Z,65.03
2022-12-26T13:30:42.706Z,60.78
2022-12-26T13:35:50.858Z,67.60
2022-12-26T13:41:21.238Z,70.22
2022-12-26T13:46:42.939Z,71.20
2022-12-26T13:51:46.178Z,67.72
2022-12-26T13:56:46.041Z,63.22
2022-12-26T14:02:07.481Z,65.47
2022-12-26T14:07:23.373Z,67.43
2022-12-26T14:17:43.110Z,63.28
2022-12-26T14:22:41.983Z,65.75
2022-12-26T14:28:04.881Z,69.00
2022-12-26T14:33:08.188Z,318.60
2022-12-26T14:38:07.688Z,90.13
2022-12-26T14:43:13.409Z,78.03
2022-12-26T14:48:18.633Z,78.68
2022-12-26T14:53:21.017Z,73.68
2022-12-26T14:58:43.425Z,70.83
2022-12-26T15:03:59.231Z,74.57
2022-12-26T15:09:14.982Z,79.18
2022-12-26T15:14:32.308Z,73.10
2022-12-26T15:19:48.975Z,75.53
2022-12-26T15:30:32.012Z,84.68
2022-12-26T15:36:13.312Z,78.55
2022-12-26T15:41:17.528Z,78.88
2022-12-26T15:46:16.794Z,80.57
2022-12-26T15:51:33.716Z,79.25
2022-12-26T15:56:53.589Z,85.90
2022-12-26T16:01:54.041Z,85.55
2022-12-26T16:07:18.092Z,85.85
2022-12-26T16:12:21.866Z,88.90
2022-12-26T16:17:14.765Z,87.28
2022-12-26T16:22:44.123Z,90.55
2022-12-26T16:27:37.466Z,88.32
2022-12-26T16:32:37.363Z,89.72
2022-12-26T16:37:32.515Z,86.13
2022-12-26T16:42:35.602Z,87.13
2022-12-26T16:47:35.588Z,86.35
2022-12-26T16:52:45.837Z,92.13
2022-12-26T16:57:43.531Z,87.45
2022-12-26T17:02:37.968Z,93.72
2022-12-26T17:07:31.512Z,87.80
2022-12-26T17:12:32.237Z,87.45
2022-12-26T17:17:25.512Z,88.75
2022-12-26T17:22:37.056Z,90.10
2022-12-26T17:27:32.852Z,87.50
2022-12-26T17:32:28.203Z,102.90
2022-12-26T17:37:28.116Z,97.53
2022-12-26T17:42:21.210Z,96.03
2022-12-26T17:52:07.401Z,95.80
2022-12-26T17:57:05.042Z,101.80
2022-12-26T18:01:59.380Z,108.78
2022-12-26T18:06:53.400Z,106.55
2022-12-26T18:11:47.552Z,110.22
2022-12-26T18:16:40.879Z,117.80
2022-12-26T18:21:34.654Z,111.03
2022-12-26T18:26:29.754Z,109.20
2022-12-26T18:31:23.737Z,113.25
2022-12-26T18:36:18.171Z,115.18
2022-12-26T18:41:16.145Z,118.30
2022-12-26T18:46:21.753Z,122.65
2022-12-26T18:51:15.955Z,124.25
2022-12-26T18:56:21.779Z,144.52
2022-12-26T19:01:17.533Z,131.13
2022-12-26T19:06:25.980Z,128.25
2022-12-26T19:11:19.984Z,132.25
2022-12-26T19:21:10.898Z,115.63
2022-12-26T19:26:13.483Z,109.68
2022-12-26T19:31:13.045Z,113.93
2022-12-26T19:36:08.822Z,111.65
2022-12-26T19:41:05.834Z,111.32
2022-12-26T19:46:04.787Z,113.63
2022-12-26T19:51:19.913Z,130.70
2022-12-26T19:56:23.339Z,136.68
2022-12-26T20:01:19.397Z,122.68
2022-12-26T20:06:19.411Z,116.53
2022-12-26T20:11:16.261Z,112.55
2022-12-26T20:16:37.320Z,111.15
2022-12-26T20:21:27.057Z,130.30
2022-12-26T20:26:23.161Z,122.60
2022-12-26T20:31:24.363Z,114.85
2022-12-26T20:36:22.178Z,120.28
2022-12-26T20:41:22.207Z,117.28
2022-12-26T20:46:26.626Z,106.50
2022-12-26T20:51:23.719Z,112.65
2022-12-26T20:56:17.608Z,115.70
2022-12-26T21:01:17.658Z,117.43
2022-12-26T21:06:18.741Z,109.85
2022-12-26T21:11:18.443Z,124.80
2022-12-26T21:16:24.993Z,128.25
2022-12-26T21:21:19.820Z,109.20
2022-12-26T21:26:14.153Z,116.22
2022-12-26T21:31:09.744Z,120.30
2022-12-26T21:36:07.155Z,112.88
2022-12-26T21:41:01.513Z,117.30
2022-12-26T21:46:00.936Z,117.63
2022-12-26T21:50:55.473Z,118.53
2022-12-26T21:55:49.167Z,118.55
2022-12-26T22:00:44.080Z,109.80
2022-12-26T22:05:40.536Z,114.70
2022-12-26T22:11:01.317Z,108.43
2022-12-26T22:16:06.563Z,113.88
2022-12-26T22:21:08.697Z,98.97
2022-12-26T22:26:11.355Z,99.20
2022-12-26T22:31:05.362Z,97.80
2022-12-26T22:36:09.182Z,100.93
2022-12-26T22:41:05.225Z,102.20
2022-12-26T22:45:58.949Z,101.97
2022-12-26T22:50:55.213Z,97.45
2022-12-26T22:55:50.841Z,94.45
2022-12-26T23:00:45.870Z,95.78
2022-12-26T23:05:40.558Z,103.57
2022-12-26T23:10:36.305Z,103.63
2022-12-26T23:15:31.712Z,100.35
2022-12-26T23:20:45.403Z,98.82
2022-12-26T23:25:42.825Z,100.20
2022-12-26T23:30:36.010Z,99.53
2022-12-26T23:35:33.533Z,95.97
2022-12-26T23:40:26.994Z,102.93
2022-12-26T23:45:21.531Z,107.00
2022-12-26T23:50:16.925Z,103.40
2022-12-26T23:55:11.855Z,101.07
